Time;durP1;ratioP1;P1;durP2;ratioP2;P2;SDS_P1;SDS_P2;PMS_P1;PMS_P2;Temp;Humidity;BMP_temperature;BMP_pressure;BME280_temperature;BME280_humidity;BME280_pressure;Samples;Min_cycle;Max_cycle;Signal;HPM_P1;HPM_P2
2022/05/15 00:05:29;;;;;;;0.20;0.10;;;17.60;99.90;;;;;;26428234;22;20166;-74
2022/05/15 00:15:34;;;;;;;0.20;0.10;;;17.60;99.90;;;;;;26430301;22;20200;-73
2022/05/15 00:25:40;;;;;;;0.20;0.00;;;17.50;99.90;;;;;;26402412;22;20170;-73
2022/05/15 00:35:44;;;;;;;0.43;0.43;;;17.50;99.90;;;;;;26401865;22;20192;-73
2022/05/15 00:45:49;;;;;;;0.20;0.10;;;17.10;99.90;;;;;;26402354;22;20180;-73
2022/05/15 00:55:54;;;;;;;0.20;0.03;;;16.90;99.90;;;;;;26428279;22;20210;-74
2022/05/15 01:05:59;;;;;;;0.20;0.10;;;17.10;99.90;;;;;;26427200;22;20226;-74
2022/05/15 01:16:05;;;;;;;0.20;0.10;;;17.00;99.90;;;;;;26400209;22;20201;-74
2022/05/15 01:26:10;;;;;;;0.20;0.10;;;17.10;99.90;;;;;;26435758;22;20158;-74
2022/05/15 01:36:14;;;;;;;0.20;0.10;;;17.10;99.90;;;;;;26435468;22;20177;-74
2022/05/15 01:46:21;;;;;;;0.20;0.10;;;16.90;99.90;;;;;;26407632;22;20177;-74
2022/05/15 01:56:25;;;;;;;0.20;0.10;;;17.40;99.90;;;;;;26434257;22;20205;-75
2022/05/15 02:06:30;;;;;;;0.20;0.10;;;17.60;99.90;;;;;;26433656;22;20162;-73
2022/05/15 02:16:36;;;;;;;0.20;0.10;;;17.60;99.90;;;;;;26407237;22;20245;-73
2022/05/15 02:26:42;;;;;;;0.20;0.10;;;17.90;99.90;;;;;;26433979;22;20162;-73
2022/05/15 02:36:46;;;;;;;0.20;0.10;;;17.70;99.90;;;;;;26433570;22;20179;-72
2022/05/15 02:46:51;;;;;;;0.20;0.10;;;17.70;99.90;;;;;;26433403;22;20253;-73
2022/05/15 02:56:55;;;;;;;0.20;0.10;;;17.60;99.90;;;;;;26404071;22;20202;-72
2022/05/15 03:07:00;;;;;;;0.20;0.00;;;17.20;99.90;;;;;;26432417;22;20166;-72
2022/05/15 03:17:05;;;;;;;0.20;0.10;;;17.00;99.90;;;;;;26431762;22;20208;-73
2022/05/15 03:27:10;;;;;;;0.20;0.10;;;16.90;99.90;;;;;;26401952;22;20162;-72
2022/05/15 03:37:13;;;;;;;0.20;0.10;;;16.90;99.90;;;;;;26431661;22;20186;-73
2022/05/15 03:47:19;;;;;;;0.20;0.10;;;16.90;99.90;;;;;;26429463;22;20166;-72
2022/05/15 03:57:23;;;;;;;0.20;0.00;;;16.90;99.90;;;;;;26401168;22;20731;-72
2022/05/15 04:07:29;;;;;;;0.20;0.10;;;16.60;99.90;;;;;;26373530;22;20173;-72
2022/05/15 04:17:32;;;;;;;0.20;0.00;;;16.60;99.90;;;;;;26400637;22;20227;-73
2022/05/15 04:27:38;;;;;;;0.20;0.10;;;16.40;99.90;;;;;;26402423;22;20162;-75
2022/05/15 04:37:42;;;;;;;0.20;0.00;;;16.50;99.90;;;;;;26430081;22;20182;-76
2022/05/15 04:47:48;;;;;;;0.20;0.10;;;16.50;99.90;;;;;;26428112;22;20162;-73
2022/05/15 04:57:52;;;;;;;0.20;0.10;;;16.60;99.90;;;;;;26407199;22;20198;-74
2022/05/15 05:07:57;;;;;;;0.20;0.10;;;16.70;99.90;;;;;;26408997;22;20167;-74
2022/05/15 05:18:01;;;;;;;0.20;0.10;;;16.80;99.90;;;;;;26436738;22;20198;-74
2022/05/15 05:28:07;;;;;;;0.20;0.10;;;16.90;99.90;;;;;;26434987;22;20165;-75
2022/05/15 05:38:11;;;;;;;0.20;0.10;;;16.80;99.90;;;;;;26406235;22;20189;-73
2022/05/15 05:48:16;;;;;;;0.20;0.10;;;17.30;99.90;;;;;;26436934;22;20185;-74
2022/05/15 05:58:20;;;;;;;0.20;0.10;;;17.90;99.90;;;;;;26435416;22;20194;-74
2022/05/15 06:08:28;;;;;;;0.20;0.10;;;18.40;99.90;;;;;;26406027;22;20166;-73
2022/05/15 06:18:32;;;;;;;0.20;0.07;;;18.90;99.90;;;;;;26433419;22;20198;-73
2022/05/15 06:28:37;;;;;;;0.20;0.00;;;19.40;99.90;;;;;;26434549;22;20168;-73
2022/05/15 06:38:42;;;;;;;0.20;0.10;;;20.10;99.90;;;;;;26403392;22;20198;-73
2022/05/15 06:48:48;;;;;;;0.20;0.00;;;20.40;99.90;;;;;;26430423;22;20158;-74
2022/05/15 06:58:52;;;;;;;0.20;0.10;;;19.90;99.90;;;;;;26429394;22;20209;-74
2022/05/15 07:08:57;;;;;;;0.20;0.10;;;20.10;99.90;;;;;;26430591;22;20166;-74
2022/05/15 07:19:01;;;;;;;0.20;0.00;;;20.50;99.90;;;;;;26428835;22;20205;-73
2022/05/15 07:29:06;;;;;;;0.20;0.10;;;20.70;99.90;;;;;;26428697;22;20170;-73
2022/05/15 07:39:10;;;;;;;0.20;0.00;;;21.10;99.90;;;;;;26427269;22;20193;-75
2022/05/15 07:49:16;;;;;;;0.20;0.00;;;21.80;99.90;;;;;;26425672;22;20158;-75
2022/05/15 07:59:20;;;;;;;0.20;0.20;;;22.00;99.90;;;;;;26395734;22;20198;-74
2022/05/15 08:09:28;;;;;;;0.20;0.00;;;22.30;99.90;;;;;;26396334;22;20166;-73
2022/05/15 08:30:00;;;;;;;0.20;0.00;;;23.00;99.90;;;;;;26425302;22;20162;-75
2022/05/15 08:40:05;;;;;;;0.20;0.00;;;22.90;99.90;;;;;;26432147;22;20275;-72
2022/05/15 08:50:13;;;;;;;0.20;0.00;;;22.50;99.90;;;;;;26432123;22;20162;-73
2022/05/15 09:00:27;;;;;;;0.20;0.00;;;22.40;99.90;;;;;;26404590;22;20231;-73
2022/05/15 09:10:38;;;;;;;0.20;0.00;;;22.70;99.90;;;;;;26432116;22;20227;-75
2022/05/15 09:20:49;;;;;;;0.20;0.10;;;23.20;99.90;;;;;;26432196;22;20203;-75
2022/05/15 09:30:57;;;;;;;0.30;0.30;;;23.50;99.90;;;;;;26398748;22;20200;-74
2022/05/15 09:51:44;;;;;;;0.20;0.00;;;23.50;99.90;;;;;;26427812;22;20204;-74
2022/05/15 10:01:59;;;;;;;0.20;0.00;;;23.40;99.90;;;;;;26428523;22;20162;-77
2022/05/15 10:12:09;;;;;;;0.20;0.00;;;24.10;99.90;;;;;;26426468;22;20253;-77
2022/05/15 10:22:25;;;;;;;0.20;0.08;;;24.30;99.90;;;;;;26427671;22;20169;-76
2022/05/15 10:32:56;;;;;;;0.20;0.00;;;24.60;99.90;;;;;;26423922;22;20189;-78
2022/05/15 10:43:17;;;;;;;1.38;1.25;;;23.60;99.90;;;;;;26399344;22;20158;-77
2022/05/15 11:28:11;;;;;;;9.00;8.25;;;25.50;99.90;;;;;;26290408;22;20158;-73
2022/05/15 11:38:28;;;;;;;0.20;0.00;;;25.80;99.90;;;;;;26265481;22;20186;-77
2022/05/15 11:48:50;;;;;;;0.20;0.00;;;26.30;99.90;;;;;;26293539;22;20208;-75
2022/05/15 11:58:58;;;;;;;0.32;0.20;;;27.20;99.90;;;;;;26263474;22;20239;-76
2022/05/15 12:09:32;;;;;;;0.20;0.10;;;26.80;99.90;;;;;;26291657;22;20208;-76
2022/05/15 12:19:38;;;;;;;0.20;0.10;;;27.00;99.90;;;;;;26250875;22;20194;-74
2022/05/15 12:30:10;;;;;;;0.20;0.10;;;27.60;99.90;;;;;;26261672;22;20163;-75
2022/05/15 12:40:15;;;;;;;1.42;0.65;;;27.70;99.90;;;;;;26292209;22;20187;-75
2022/05/15 12:50:23;;;;;;;0.20;0.00;;;28.10;99.90;;;;;;26295115;22;20167;-76
2022/05/15 13:00:31;;;;;;;0.20;0.10;;;28.30;99.90;;;;;;26292565;22;20213;-76
2022/05/15 13:10:41;;;;;;;0.20;0.05;;;28.90;99.90;;;;;;26293272;22;20211;-81
2022/05/15 13:20:49;;;;;;;0.20;0.10;;;28.70;99.90;;;;;;26285096;22;20189;-75
2022/05/15 13:30:55;;;;;;;0.20;0.00;;;29.00;99.90;;;;;;26431655;22;20271;-77
2022/05/15 13:51:49;;;;;;;0.20;0.10;;;29.50;99.90;;;;;;26157179;22;20198;-75
2022/05/15 14:02:11;;;;;;;22.13;8.75;;;29.80;99.90;;;;;;26429045;22;20166;-75
2022/05/15 14:12:18;;;;;;;0.20;0.10;;;29.40;99.90;;;;;;26398427;22;20189;-75
2022/05/15 14:22:23;;;;;;;0.30;0.20;;;29.60;99.90;;;;;;26370495;22;20289;-76
2022/05/15 14:32:30;;;;;;;0.20;0.00;;;30.60;99.90;;;;;;26395916;22;20197;-76
2022/05/15 14:42:35;;;;;;;0.88;0.77;;;30.30;99.90;;;;;;26423343;22;20163;-75
2022/05/15 14:52:41;;;;;;;0.20;0.00;;;30.10;99.90;;;;;;26399735;22;20212;-75
2022/05/15 15:02:45;;;;;;;0.20;0.00;;;30.20;99.90;;;;;;26424140;22;20150;-75
2022/05/15 15:12:50;;;;;;;0.20;0.10;;;29.80;99.90;;;;;;26396778;22;20174;-77
2022/05/15 15:22:54;;;;;;;0.20;0.00;;;29.80;99.90;;;;;;26425732;22;20277;-73
2022/05/15 15:33:00;;;;;;;0.45;0.22;;;29.70;99.90;;;;;;26397663;22;20182;-79
2022/05/15 15:43:09;;;;;;;0.20;0.10;;;29.70;99.90;;;;;;26423248;22;20625;-74
2022/05/15 15:53:16;;;;;;;0.20;0.10;;;29.10;99.90;;;;;;26420015;22;20186;-77
2022/05/15 16:03:20;;;;;;;0.20;0.10;;;28.20;99.90;;;;;;26389427;22;20158;-76
2022/05/15 16:13:26;;;;;;;0.20;0.00;;;25.90;99.90;;;;;;26391817;22;20225;-79
2022/05/15 16:23:32;;;;;;;0.20;0.00;;;25.30;99.90;;;;;;26419842;22;20186;-76
2022/05/15 16:33:41;;;;;;;0.30;0.28;;;25.00;99.90;;;;;;26418206;22;20212;-74
2022/05/15 16:43:45;;;;;;;0.20;0.00;;;24.70;99.90;;;;;;26387191;22;20358;-78
2022/05/15 16:53:50;;;;;;;0.20;0.10;;;23.90;99.90;;;;;;26399119;22;20201;-76
2022/05/15 17:03:54;;;;;;;0.20;0.00;;;24.00;99.90;;;;;;26427830;22;20166;-76
2022/05/15 17:13:59;;;;;;;0.20;0.00;;;23.30;99.90;;;;;;26430510;22;20178;-74
2022/05/15 17:24:03;;;;;;;0.20;0.00;;;23.20;99.90;;;;;;26399129;22;20193;-75
2022/05/15 17:34:15;;;;;;;0.20;0.00;;;22.80;99.90;;;;;;26427848;22;20178;-75
2022/05/15 17:44:19;;;;;;;0.20;0.10;;;22.50;99.90;;;;;;26396612;22;20178;-77
2022/05/15 17:54:24;;;;;;;0.20;0.10;;;22.50;99.90;;;;;;26398335;22;20186;-89
2022/05/15 18:04:30;;;;;;;0.20;0.00;;;22.40;99.90;;;;;;26424238;22;20166;-76
2022/05/15 18:14:35;;;;;;;0.20;0.00;;;22.40;99.90;;;;;;26426399;22;20210;-76
2022/05/15 18:24:39;;;;;;;0.20;0.07;;;22.30;99.90;;;;;;26427887;22;20186;-80
2022/05/15 18:34:47;;;;;;;0.20;0.00;;;22.20;99.90;;;;;;26422185;22;20170;-82
2022/05/15 18:44:51;;;;;;;0.20;0.00;;;21.80;99.90;;;;;;26397055;22;20159;-80
2022/05/15 18:54:56;;;;;;;0.20;0.10;;;21.70;99.90;;;;;;26399742;22;20193;-79
2022/05/15 19:05:02;;;;;;;0.20;0.00;;;21.50;99.90;;;;;;26425549;22;20150;-78
2022/05/15 19:15:08;;;;;;;0.20;0.00;;;21.40;99.90;;;;;;26400680;22;20193;-77
2022/05/15 19:25:13;;;;;;;0.20;0.10;;;21.20;99.90;;;;;;26397213;22;20192;-78
2022/05/15 19:35:18;;;;;;;0.20;0.00;;;21.20;99.90;;;;;;26423853;22;20239;-77
2022/05/15 19:45:23;;;;;;;0.20;0.10;;;21.10;99.90;;;;;;26420319;22;20166;-77
2022/05/15 19:55:28;;;;;;;0.20;0.00;;;20.70;99.90;;;;;;26421160;22;20558;-77
2022/05/15 20:15:55;;;;;;;0.20;0.00;;;20.50;99.90;;;;;;26394042;22;20201;-76
2022/05/15 20:25:59;;;;;;;0.20;0.00;;;20.50;99.90;;;;;;26425211;22;20205;-78
2022/05/15 20:36:05;;;;;;;0.20;0.10;;;20.50;99.90;;;;;;26395963;22;20206;-76
2022/05/15 20:46:10;;;;;;;0.20;0.00;;;19.70;99.90;;;;;;26424140;22;20162;-79
2022/05/15 20:56:17;;;;;;;0.20;0.00;;;19.80;99.90;;;;;;26423443;22;20185;-78
2022/05/15 21:06:21;;;;;;;0.20;0.10;;;19.50;99.90;;;;;;26422326;22;20155;-77
2022/05/15 21:16:27;;;;;;;0.20;0.00;;;19.30;99.90;;;;;;26423592;22;20182;-78
2022/05/15 21:26:31;;;;;;;0.20;0.10;;;19.00;99.90;;;;;;26424688;22;20190;-79
2022/05/15 21:36:37;;;;;;;0.20;0.00;;;19.00;99.90;;;;;;26430358;22;20186;-78
2022/05/15 21:46:46;;;;;;;0.20;0.10;;;18.80;99.90;;;;;;26434027;22;20169;-77
2022/05/15 21:56:52;;;;;;;0.20;0.00;;;18.80;99.90;;;;;;26434511;22;20387;-77
2022/05/15 22:06:56;;;;;;;0.20;0.10;;;18.50;99.90;;;;;;26407222;22;20158;-76
2022/05/15 22:17:01;;;;;;;0.20;0.10;;;18.40;99.90;;;;;;26404626;22;20189;-76
2022/05/15 22:27:05;;;;;;;0.20;0.10;;;18.30;99.90;;;;;;26433048;22;20194;-75
2022/05/15 22:37:11;;;;;;;0.20;0.10;;;18.10;99.90;;;;;;26427850;22;20182;-75
2022/05/15 22:47:16;;;;;;;0.20;0.10;;;18.40;99.90;;;;;;26430568;22;20177;-75
2022/05/15 22:57:21;;;;;;;0.20;0.00;;;18.20;99.90;;;;;;26428220;22;20682;-79
2022/05/15 23:07:30;;;;;;;0.20;0.10;;;17.90;99.90;;;;;;26401761;22;20177;-79
2022/05/15 23:17:36;;;;;;;0.20;0.00;;;18.10;99.90;;;;;;26430007;22;20190;-78
2022/05/15 23:27:41;;;;;;;0.20;0.10;;;18.00;99.90;;;;;;26428523;22;20186;-77
2022/05/15 23:37:46;;;;;;;0.20;0.10;;;18.00;99.90;;;;;;26402563;22;20197;-78
2022/05/15 23:47:52;;;;;;;0.20;0.10;;;17.70;99.90;;;;;;26400652;22;20162;-77
2022/05/15 23:57:57;;;;;;;0.20;0.10;;;17.90;99.90;;;;;;26399958;22;20275;-78
